createdAt,value
2022-08-19T00:02:03.074Z,20.30
2022-08-19T00:04:37.231Z,20.30
2022-08-19T00:07:05.673Z,20.40
2022-08-19T00:09:32.530Z,20.40
2022-08-19T00:11:59.522Z,20.40
2022-08-19T00:14:26.640Z,20.40
2022-08-19T00:16:55.267Z,20.40
2022-08-19T00:19:22.741Z,20.40
2022-08-19T00:21:49.734Z,20.40
2022-08-19T00:24:16.705Z,20.40
2022-08-19T00:26:43.950Z,20.50
2022-08-19T00:29:11.716Z,20.50
2022-08-19T00:31:38.666Z,20.50
2022-08-19T00:34:05.592Z,20.50
2022-08-19T00:36:33.997Z,20.50
2022-08-19T00:39:00.923Z,20.50
2022-08-19T00:41:27.766Z,20.50
2022-08-19T00:44:15.343Z,20.50
2022-08-19T00:46:44.980Z,20.50
2022-08-19T00:49:33.788Z,20.50
2022-08-19T00:52:09.804Z,20.50
2022-08-19T00:54:37.620Z,20.50
2022-08-19T00:57:07.237Z,20.50
2022-08-19T01:00:00.943Z,20.50
2022-08-19T01:02:22.840Z,20.50
2022-08-19T01:04:49.794Z,20.50
2022-08-19T01:07:19.771Z,20.50
2022-08-19T01:09:47.107Z,20.40
2022-08-19T01:12:14.160Z,20.40
2022-08-19T01:14:41.253Z,20.40
2022-08-19T01:17:12.161Z,20.40
2022-08-19T01:19:44.147Z,20.40
2022-08-19T01:22:34.096Z,20.40
2022-08-19T01:25:01.964Z,20.40
2022-08-19T01:27:42.977Z,20.40
2022-08-19T01:30:13.126Z,20.40
2022-08-19T01:32:40.001Z,20.40
2022-08-19T01:35:07.032Z,20.40
2022-08-19T01:38:11.070Z,20.40
2022-08-19T01:40:41.502Z,20.40
2022-08-19T01:43:08.754Z,20.50
2022-08-19T01:45:35.716Z,20.40
2022-08-19T01:48:02.732Z,20.40
2022-08-19T01:50:31.541Z,20.40
2022-08-19T01:53:06.303Z,20.40
2022-08-19T01:55:35.325Z,20.40
2022-08-19T01:58:08.029Z,20.40
2022-08-19T02:00:35.568Z,20.30
2022-08-19T02:03:02.442Z,20.40
2022-08-19T02:05:30.150Z,20.40
2022-08-19T02:07:57.872Z,20.40
2022-08-19T02:10:24.728Z,20.40
2022-08-19T02:12:51.758Z,20.50
2022-08-19T02:15:20.440Z,20.50
2022-08-19T02:17:47.816Z,20.50
2022-08-19T02:20:14.758Z,20.50
2022-08-19T02:22:43.348Z,20.50
2022-08-19T02:25:13.953Z,20.40
2022-08-19T02:27:41.486Z,20.50
2022-08-19T02:30:10.197Z,20.50
2022-08-19T02:32:44.684Z,20.50
2022-08-19T02:35:12.825Z,20.50
2022-08-19T02:37:58.284Z,20.50
2022-08-19T02:40:25.242Z,20.50
2022-08-19T02:42:52.463Z,20.60
2022-08-19T02:45:19.578Z,20.60
2022-08-19T02:47:46.324Z,20.60
2022-08-19T02:50:13.884Z,20.60
2022-08-19T02:52:40.735Z,20.60
2022-08-19T02:55:08.245Z,20.60
2022-08-19T02:57:35.338Z,20.60
2022-08-19T03:00:02.835Z,20.60
2022-08-19T03:02:29.945Z,20.60
2022-08-19T03:04:56.721Z,20.60
2022-08-19T03:07:23.613Z,20.60
2022-08-19T03:09:50.429Z,20.60
2022-08-19T03:12:17.224Z,20.60
2022-08-19T03:14:44.140Z,20.60
2022-08-19T03:17:10.899Z,20.60
2022-08-19T03:19:39.218Z,20.70
2022-08-19T03:22:06.312Z,20.70
2022-08-19T03:24:33.291Z,20.60
2022-08-19T03:27:00.210Z,20.70
2022-08-19T03:29:31.160Z,20.70
2022-08-19T03:32:04.661Z,20.70
2022-08-19T03:34:33.202Z,20.70
2022-08-19T03:37:01.668Z,20.70
2022-08-19T03:39:28.546Z,20.70
2022-08-19T03:42:31.930Z,20.70
2022-08-19T03:44:46.249Z,20.60
2022-08-19T03:47:17.305Z,20.40
2022-08-19T03:49:44.290Z,20.30
2022-08-19T03:52:11.155Z,20.20
2022-08-19T03:54:39.334Z,20.10
2022-08-19T03:57:06.430Z,20.00
2022-08-19T03:59:35.273Z,20.00
2022-08-19T04:02:03.705Z,19.90
2022-08-19T04:04:31.909Z,19.90
2022-08-19T04:06:58.985Z,19.90
2022-08-19T04:09:26.840Z,19.90
2022-08-19T04:11:56.435Z,19.80
2022-08-19T04:14:25.767Z,19.80
2022-08-19T04:16:52.779Z,19.80
2022-08-19T04:19:19.826Z,19.80
2022-08-19T04:21:47.994Z,19.80
2022-08-19T04:24:14.953Z,19.80
2022-08-19T04:26:41.776Z,19.80
2022-08-19T04:29:16.906Z,19.80
2022-08-19T04:31:44.400Z,19.80
2022-08-19T04:34:12.355Z,19.90
2022-08-19T04:36:40.724Z,19.90
2022-08-19T04:39:09.944Z,19.90
2022-08-19T04:41:55.739Z,19.90
2022-08-19T04:44:22.690Z,19.90
2022-08-19T04:46:51.536Z,19.90
2022-08-19T04:49:23.413Z,19.90
2022-08-19T04:51:50.811Z,19.90
2022-08-19T04:54:28.781Z,19.80
2022-08-19T04:57:07.797Z,19.80
2022-08-19T04:59:35.175Z,19.80
2022-08-19T05:02:02.133Z,19.80
2022-08-19T05:04:32.808Z,19.70
2022-08-19T05:07:00.957Z,19.70
2022-08-19T05:09:55.508Z,19.70
2022-08-19T05:12:16.653Z,19.70
2022-08-19T05:14:45.428Z,19.70
2022-08-19T05:17:27.221Z,19.70
2022-08-19T05:20:13.637Z,19.70
2022-08-19T05:22:40.697Z,19.60
2022-08-19T05:25:13.046Z,19.60
2022-08-19T05:27:40.801Z,19.60
2022-08-19T05:30:08.243Z,19.60
2022-08-19T05:32:35.187Z,19.60
2022-08-19T05:35:02.196Z,19.60
2022-08-19T05:37:29.180Z,19.60
2022-08-19T05:39:56.126Z,19.70
2022-08-19T05:42:24.161Z,19.70
2022-08-19T05:44:51.469Z,19.70
2022-08-19T05:47:20.697Z,19.70
2022-08-19T05:49:48.332Z,19.70
2022-08-19T05:52:18.557Z,19.70
2022-08-19T05:54:51.325Z,19.70
2022-08-19T05:57:20.076Z,19.80
2022-08-19T05:59:49.321Z,19.80
2022-08-19T06:02:19.941Z,19.80
2022-08-19T06:04:46.827Z,19.80
2022-08-19T06:07:13.727Z,19.80
2022-08-19T06:09:41.314Z,19.90
2022-08-19T06:12:10.595Z,19.90
2022-08-19T06:14:40.490Z,19.90
2022-08-19T06:17:09.272Z,20.00
2022-08-19T06:19:40.513Z,20.00
2022-08-19T06:22:08.474Z,20.00
2022-08-19T06:24:36.436Z,20.00
2022-08-19T06:27:03.616Z,20.00
2022-08-19T06:29:31.253Z,20.00
2022-08-19T06:31:59.770Z,20.00
2022-08-19T06:34:28.367Z,20.10
2022-08-19T06:36:56.139Z,20.00
2022-08-19T06:39:27.307Z,20.20
2022-08-19T06:41:59.148Z,20.10
2022-08-19T06:44:28.876Z,20.10
2022-08-19T06:46:57.314Z,20.10
2022-08-19T06:49:31.953Z,20.10
2022-08-19T06:51:59.710Z,20.10
2022-08-19T06:54:30.905Z,20.10
2022-08-19T06:56:59.071Z,20.10
2022-08-19T06:59:29.164Z,20.10
2022-08-19T07:01:57.125Z,20.10
2022-08-19T07:04:28.797Z,20.10
2022-08-19T07:07:12.534Z,20.10
2022-08-19T07:09:58.265Z,20.10
2022-08-19T07:12:30.203Z,20.10
2022-08-19T07:14:58.353Z,20.10
2022-08-19T07:17:25.242Z,20.10
2022-08-19T07:19:54.193Z,20.20
2022-08-19T07:22:24.160Z,20.10
2022-08-19T07:24:52.229Z,20.20
2022-08-19T07:27:24.242Z,20.20
2022-08-19T07:29:55.880Z,20.20
2022-08-19T07:32:23.295Z,20.20
2022-08-19T07:34:50.205Z,20.30
2022-08-19T07:37:17.372Z,20.30
2022-08-19T07:39:44.453Z,20.30
2022-08-19T07:42:14.691Z,20.40
2022-08-19T07:44:41.913Z,20.50
2022-08-19T07:47:47.915Z,20.50
2022-08-19T07:49:56.458Z,20.70
2022-08-19T07:52:23.485Z,20.70
2022-08-19T07:54:50.929Z,20.80
2022-08-19T07:57:18.279Z,20.90
2022-08-19T07:59:45.077Z,21.00
2022-08-19T08:02:11.896Z,21.10
2022-08-19T08:04:57.287Z,21.20
2022-08-19T08:07:46.247Z,21.30
2022-08-19T08:10:20.678Z,21.40
2022-08-19T08:13:09.562Z,21.40
2022-08-19T08:15:42.711Z,21.50
2022-08-19T08:18:11.487Z,21.50
2022-08-19T08:20:38.733Z,21.60
2022-08-19T08:23:26.074Z,21.60
2022-08-19T08:25:54.607Z,21.60
2022-08-19T08:28:21.587Z,21.70
2022-08-19T08:30:49.346Z,21.70
2022-08-19T08:33:32.980Z,21.70
2022-08-19T08:36:00.393Z,21.70
2022-08-19T08:38:27.301Z,21.70
2022-08-19T08:41:07.573Z,21.70
2022-08-19T08:43:38.998Z,21.70
2022-08-19T08:46:30.555Z,21.80
2022-08-19T08:49:10.355Z,21.80
2022-08-19T08:51:48.422Z,21.80
2022-08-19T08:54:26.093Z,21.90
2022-08-19T08:56:53.306Z,22.00
2022-08-19T08:59:32.937Z,22.00
2022-08-19T09:02:00.314Z,22.00
2022-08-19T09:04:27.773Z,21.90
2022-08-19T09:07:17.969Z,21.90
2022-08-19T09:09:52.718Z,21.80
2022-08-19T09:12:55.421Z,21.70
2022-08-19T09:15:33.327Z,21.70
2022-08-19T09:18:03.102Z,21.80
2022-08-19T09:20:34.028Z,22.00
2022-08-19T09:23:00.960Z,22.10
2022-08-19T09:25:29.739Z,22.10
2022-08-19T09:28:03.093Z,22.30
2022-08-19T09:30:34.867Z,22.50
2022-08-19T09:33:01.939Z,22.60
2022-08-19T09:35:30.045Z,22.80
2022-08-19T09:37:59.747Z,22.70
2022-08-19T09:40:30.279Z,22.80
2022-08-19T09:42:58.754Z,22.80
2022-08-19T09:45:25.963Z,22.80
2022-08-19T09:47:54.627Z,22.80
2022-08-19T09:50:22.762Z,22.80
2022-08-19T09:52:54.072Z,22.90
2022-08-19T09:55:24.349Z,23.10
2022-08-19T09:57:57.738Z,23.20
2022-08-19T10:00:24.598Z,23.50
2022-08-19T10:02:51.698Z,23.80
2022-08-19T10:05:38.632Z,24.00
2022-08-19T10:08:13.200Z,24.30
2022-08-19T10:10:46.210Z,24.50
2022-08-19T10:13:14.678Z,24.60
2022-08-19T10:15:47.068Z,24.60
2022-08-19T10:18:15.420Z,24.50
2022-08-19T10:20:43.381Z,24.40
2022-08-19T10:23:10.644Z,24.40
2022-08-19T10:25:38.715Z,24.20
2022-08-19T10:28:13.089Z,24.00
2022-08-19T10:30:40.730Z,23.90
2022-08-19T10:33:11.168Z,24.00
2022-08-19T10:35:56.613Z,24.00
2022-08-19T10:38:31.384Z,23.90
2022-08-19T10:40:59.383Z,23.80
2022-08-19T10:43:26.632Z,23.60
2022-08-19T10:45:59.518Z,23.60
2022-08-19T10:48:26.757Z,23.50
2022-08-19T10:51:22.894Z,23.40
2022-08-19T10:53:51.316Z,23.50
2022-08-19T10:56:36.931Z,23.40
2022-08-19T10:59:04.440Z,23.40
2022-08-19T11:01:32.138Z,23.30
2022-08-19T11:03:59.233Z,23.20
2022-08-19T11:06:26.369Z,23.30
2022-08-19T11:08:55.574Z,23.30
2022-08-19T11:11:22.932Z,23.50
2022-08-19T11:13:51.089Z,23.40
2022-08-19T11:16:23.399Z,23.50
2022-08-19T11:18:52.790Z,23.50
2022-08-19T11:21:24.768Z,23.50
2022-08-19T11:23:53.402Z,23.50
2022-08-19T11:26:22.157Z,23.60
2022-08-19T11:28:49.194Z,23.60
2022-08-19T11:31:20.425Z,23.60
2022-08-19T11:33:47.873Z,23.60
2022-08-19T11:36:15.312Z,23.60
2022-08-19T11:38:43.398Z,23.60
2022-08-19T11:41:10.234Z,23.70
2022-08-19T11:43:37.870Z,23.70
2022-08-19T11:46:08.951Z,23.70
2022-08-19T11:48:36.132Z,23.60
2022-08-19T11:51:07.176Z,23.60
2022-08-19T11:53:35.219Z,23.60
2022-08-19T11:56:02.332Z,23.50
2022-08-19T11:58:30.311Z,23.50
2022-08-19T12:00:57.255Z,23.50
2022-08-19T12:03:24.230Z,23.50
2022-08-19T12:05:51.157Z,23.60
2022-08-19T12:08:18.211Z,23.50
2022-08-19T12:10:46.569Z,23.50
2022-08-19T12:13:19.310Z,23.60
2022-08-19T12:15:47.658Z,23.60
2022-08-19T12:18:17.177Z,23.70
2022-08-19T12:20:44.259Z,23.70
2022-08-19T12:23:11.336Z,23.80
2022-08-19T12:25:38.987Z,23.80
2022-08-19T12:28:05.862Z,23.90
2022-08-19T12:30:33.039Z,24.00
2022-08-19T12:33:00.088Z,24.00
2022-08-19T12:35:27.056Z,24.00
2022-08-19T12:37:57.380Z,24.00
2022-08-19T12:40:26.471Z,24.00
2022-08-19T12:42:54.866Z,24.00
2022-08-19T12:45:22.665Z,24.00
2022-08-19T12:47:50.627Z,24.00
2022-08-19T12:50:22.573Z,24.00
2022-08-19T12:52:50.314Z,23.90
2022-08-19T12:55:19.842Z,23.90
2022-08-19T12:57:47.131Z,23.90
2022-08-19T13:00:21.708Z,24.00
2022-08-19T13:02:51.541Z,24.50
2022-08-19T13:05:23.800Z,24.80
2022-08-19T13:07:52.763Z,25.20
2022-08-19T13:10:20.804Z,25.70
2022-08-19T13:12:49.531Z,26.20
2022-08-19T13:15:23.880Z,26.70
2022-08-19T13:17:52.295Z,27.20
2022-08-19T13:20:20.303Z,27.70
2022-08-19T13:22:47.661Z,27.90
2022-08-19T13:25:17.475Z,27.90
2022-08-19T13:27:44.875Z,27.70
2022-08-19T13:30:32.087Z,27.70
2022-08-19T13:33:17.387Z,27.90
2022-08-19T13:35:47.371Z,28.10
2022-08-19T13:38:15.363Z,28.60
2022-08-19T13:40:42.722Z,29.10
2022-08-19T13:43:17.694Z,29.50
2022-08-19T13:45:56.450Z,29.70
2022-08-19T13:48:23.707Z,29.90
2022-08-19T13:50:50.796Z,30.00
2022-08-19T13:53:18.275Z,30.20
2022-08-19T13:55:45.321Z,30.20
2022-08-19T13:58:12.732Z,29.80
2022-08-19T14:00:41.813Z,29.30
2022-08-19T14:03:09.500Z,29.10
2022-08-19T14:05:36.891Z,28.70
2022-08-19T14:08:03.981Z,28.70
2022-08-19T14:10:32.594Z,28.70
2022-08-19T14:13:01.635Z,28.70
2022-08-19T14:15:28.985Z,28.80
2022-08-19T14:17:56.217Z,29.00
2022-08-19T14:20:26.291Z,29.20
2022-08-19T14:22:54.044Z,29.40
2022-08-19T14:25:23.994Z,29.50
2022-08-19T14:27:51.278Z,29.70
2022-08-19T14:30:20.983Z,29.80
2022-08-19T14:32:48.343Z,30.20
2022-08-19T14:35:15.864Z,30.40
2022-08-19T14:37:45.374Z,30.60
2022-08-19T14:40:14.743Z,30.80
2022-08-19T14:42:42.527Z,30.80
2022-08-19T14:45:10.516Z,30.70
2022-08-19T14:47:39.828Z,30.60
2022-08-19T14:50:10.533Z,30.50
2022-08-19T14:52:45.583Z,30.30
2022-08-19T14:55:13.225Z,30.40
2022-08-19T14:57:42.390Z,31.30
2022-08-19T15:00:14.423Z,30.60
2022-08-19T15:02:47.294Z,30.60
2022-08-19T15:05:14.439Z,30.50
2022-08-19T15:07:42.107Z,30.50
2022-08-19T15:10:10.489Z,30.40
2022-08-19T15:12:41.357Z,30.30
2022-08-19T15:15:10.310Z,30.30
2022-08-19T15:17:45.938Z,30.30
2022-08-19T15:20:17.921Z,30.10
2022-08-19T15:22:47.341Z,29.60
2022-08-19T15:25:15.675Z,29.20
2022-08-19T15:27:42.899Z,28.80
2022-08-19T15:30:10.804Z,28.20
2022-08-19T15:32:38.478Z,27.70
2022-08-19T15:35:06.509Z,27.30
2022-08-19T15:37:37.050Z,26.90
2022-08-19T15:40:05.849Z,26.50
2022-08-19T15:42:33.314Z,26.20
2022-08-19T15:45:01.381Z,26.00
2022-08-19T15:47:35.402Z,25.90
2022-08-19T15:50:18.903Z,25.80
2022-08-19T15:52:50.732Z,25.70
2022-08-19T15:55:32.440Z,25.50
2022-08-19T15:58:29.740Z,25.40
2022-08-19T16:01:27.205Z,25.30
2022-08-19T16:04:14.922Z,25.20
2022-08-19T16:06:48.336Z,25.30
2022-08-19T16:09:15.883Z,25.30
2022-08-19T16:11:45.773Z,25.30
2022-08-19T16:14:16.121Z,25.20
2022-08-19T16:16:44.597Z,25.20
2022-08-19T16:19:12.790Z,25.10
2022-08-19T16:21:41.468Z,25.10
2022-08-19T16:24:12.162Z,25.00
2022-08-19T16:26:39.531Z,25.00
2022-08-19T16:29:08.752Z,25.00
2022-08-19T16:31:36.273Z,24.90
2022-08-19T16:34:03.725Z,24.90
2022-08-19T16:36:31.396Z,24.90
2022-08-19T16:38:58.784Z,24.90
2022-08-19T16:41:27.471Z,25.00
2022-08-19T16:43:55.350Z,25.00
2022-08-19T16:46:22.987Z,25.20
2022-08-19T16:48:52.288Z,25.30
2022-08-19T16:51:23.059Z,25.50
2022-08-19T16:53:52.726Z,25.60
2022-08-19T16:56:21.248Z,25.80
2022-08-19T16:58:50.205Z,26.00
2022-08-19T17:01:17.541Z,26.10
2022-08-19T17:03:44.590Z,26.10
2022-08-19T17:06:18.499Z,26.10
2022-08-19T17:08:49.045Z,26.10
2022-08-19T17:11:19.154Z,26.00
2022-08-19T17:13:47.642Z,26.00
2022-08-19T17:16:15.853Z,25.90
2022-08-19T17:18:42.766Z,25.80
2022-08-19T17:21:09.769Z,25.70
2022-08-19T17:23:43.534Z,25.70
2022-08-19T17:26:17.160Z,25.50
2022-08-19T17:28:46.029Z,25.40
2022-08-19T17:31:12.913Z,25.30
2022-08-19T17:33:41.341Z,25.20
2022-08-19T17:36:09.394Z,25.10
2022-08-19T17:38:37.412Z,25.10
2022-08-19T17:41:05.682Z,25.00
2022-08-19T17:43:34.552Z,25.00
2022-08-19T17:46:04.654Z,24.80
2022-08-19T17:48:38.889Z,24.70
2022-08-19T17:51:22.078Z,24.50
2022-08-19T17:53:50.819Z,24.40
2022-08-19T17:56:18.147Z,24.20
2022-08-19T17:58:45.132Z,24.10
2022-08-19T18:01:25.098Z,23.90
2022-08-19T18:03:54.348Z,23.80
2022-08-19T18:06:21.397Z,23.70
2022-08-19T18:08:49.159Z,23.60
2022-08-19T18:11:16.528Z,23.50
2022-08-19T18:13:43.715Z,23.40
2022-08-19T18:16:13.343Z,23.30
2022-08-19T18:18:41.125Z,23.20
2022-08-19T18:21:08.268Z,23.10
2022-08-19T18:23:44.055Z,23.00
2022-08-19T18:26:11.934Z,22.90
2022-08-19T18:28:46.844Z,22.80
2022-08-19T18:31:17.328Z,22.70
2022-08-19T18:33:45.035Z,22.60
2022-08-19T18:36:12.090Z,22.50
2022-08-19T18:38:57.581Z,22.50
2022-08-19T18:41:43.795Z,22.40
2022-08-19T18:44:29.618Z,22.40
2022-08-19T18:47:15.080Z,22.30
2022-08-19T18:49:42.088Z,22.30
2022-08-19T18:52:09.234Z,22.20
2022-08-19T18:54:36.916Z,22.10
2022-08-19T18:57:05.894Z,22.00
2022-08-19T18:59:32.951Z,22.00
2022-08-19T19:01:59.959Z,22.00
2022-08-19T19:04:32.289Z,21.90
2022-08-19T19:07:00.174Z,21.90
2022-08-19T19:09:27.401Z,21.70
2022-08-19T19:11:59.273Z,21.70
2022-08-19T19:14:48.667Z,21.70
2022-08-19T19:17:16.802Z,21.60
2022-08-19T19:19:44.241Z,21.60
2022-08-19T19:22:13.322Z,21.50
2022-08-19T19:24:44.298Z,21.50
2022-08-19T19:27:12.923Z,21.50
2022-08-19T19:29:40.321Z,21.40
2022-08-19T19:32:09.052Z,21.40
2022-08-19T19:34:38.075Z,21.30
2022-08-19T19:37:05.155Z,21.30
2022-08-19T19:39:46.092Z,21.20
2022-08-19T19:42:20.633Z,21.20
2022-08-19T19:44:48.899Z,21.10
2022-08-19T19:47:17.568Z,21.10
2022-08-19T19:50:10.663Z,21.00
2022-08-19T19:52:33.723Z,21.00
2022-08-19T19:55:01.426Z,21.00
2022-08-19T19:57:29.427Z,20.90
2022-08-19T19:59:56.787Z,20.90
2022-08-19T20:02:25.328Z,20.80
2022-08-19T20:04:52.956Z,20.80
2022-08-19T20:07:40.118Z,20.70
2022-08-19T20:10:07.489Z,20.70
2022-08-19T20:12:35.106Z,20.70
2022-08-19T20:15:02.682Z,20.70
2022-08-19T20:17:29.597Z,20.60
2022-08-19T20:19:57.512Z,20.60
2022-08-19T20:22:25.831Z,20.50
2022-08-19T20:24:56.005Z,20.50
2022-08-19T20:27:25.814Z,20.50
2022-08-19T20:29:56.230Z,20.50
2022-08-19T20:32:24.166Z,20.40
2022-08-19T20:34:51.364Z,20.30
2022-08-19T20:37:18.571Z,20.30
2022-08-19T20:39:45.821Z,20.30
2022-08-19T20:42:13.123Z,20.20
2022-08-19T20:44:40.163Z,20.20
2022-08-19T20:47:07.203Z,20.20
2022-08-19T20:49:35.355Z,20.10
2022-08-19T20:52:03.838Z,20.10
2022-08-19T20:54:30.932Z,20.00
2022-08-19T20:56:57.953Z,20.00
2022-08-19T20:59:26.418Z,20.00
2022-08-19T21:01:54.363Z,19.90
2022-08-19T21:04:21.776Z,19.90
2022-08-19T21:06:49.854Z,19.90
2022-08-19T21:09:17.174Z,19.80
2022-08-19T21:11:44.292Z,19.80
2022-08-19T21:14:11.387Z,19.70
2022-08-19T21:16:38.475Z,19.70
2022-08-19T21:19:05.464Z,19.70
2022-08-19T21:21:33.245Z,19.60
2022-08-19T21:24:00.176Z,19.60
2022-08-19T21:26:27.279Z,19.50
2022-08-19T21:28:54.307Z,19.50
2022-08-19T21:31:21.565Z,19.40
2022-08-19T21:33:48.412Z,19.30
2022-08-19T21:36:15.657Z,19.30
2022-08-19T21:38:42.609Z,19.30
2022-08-19T21:41:09.465Z,19.30
2022-08-19T21:43:38.909Z,19.20
2022-08-19T21:46:06.197Z,19.10
2022-08-19T21:48:33.288Z,19.10
2022-08-19T21:51:00.185Z,19.10
2022-08-19T21:53:31.681Z,19.10
2022-08-19T21:56:01.979Z,19.10
2022-08-19T21:58:30.522Z,19.00
2022-08-19T22:00:59.792Z,19.00
2022-08-19T22:03:27.272Z,19.00
2022-08-19T22:05:54.162Z,18.90
2022-08-19T22:08:21.282Z,18.90
2022-08-19T22:10:52.613Z,18.80
2022-08-19T22:13:20.172Z,18.80
2022-08-19T22:15:48.947Z,18.80
2022-08-19T22:18:18.093Z,18.70
2022-08-19T22:20:45.371Z,18.70
2022-08-19T22:23:12.458Z,18.70
2022-08-19T22:25:40.892Z,18.60
2022-08-19T22:28:11.178Z,18.60
2022-08-19T22:30:41.635Z,18.60
2022-08-19T22:33:13.351Z,18.50
2022-08-19T22:35:41.118Z,18.50
2022-08-19T22:38:08.328Z,18.40
2022-08-19T22:40:39.523Z,18.40
2022-08-19T22:43:15.860Z,18.40
2022-08-19T22:45:43.302Z,18.30
2022-08-19T22:48:11.566Z,18.30
2022-08-19T22:50:39.085Z,18.30
2022-08-19T22:53:09.703Z,18.20
2022-08-19T22:55:38.228Z,18.20
2022-08-19T22:58:05.561Z,18.20
2022-08-19T23:00:32.862Z,18.20
2022-08-19T23:03:01.700Z,18.10
2022-08-19T23:05:29.191Z,18.10
2022-08-19T23:07:58.294Z,18.10
2022-08-19T23:10:27.196Z,18.00
2022-08-19T23:12:56.471Z,18.00
2022-08-19T23:15:25.904Z,18.00
2022-08-19T23:17:54.079Z,17.90
2022-08-19T23:20:21.538Z,17.90
2022-08-19T23:22:50.974Z,17.80
2022-08-19T23:25:20.924Z,17.80
2022-08-19T23:28:06.247Z,17.80
2022-08-19T23:30:36.021Z,17.70
2022-08-19T23:33:12.263Z,17.70
2022-08-19T23:35:41.128Z,17.70
2022-08-19T23:38:08.851Z,17.60
2022-08-19T23:40:36.615Z,17.50
2022-08-19T23:43:07.818Z,17.50
2022-08-19T23:45:38.156Z,17.50
2022-08-19T23:48:06.708Z,17.50
2022-08-19T23:50:34.406Z,17.40
2022-08-19T23:53:01.787Z,17.40
2022-08-19T23:55:33.865Z,17.30
2022-08-19T23:58:01.443Z,17.20
